Create Tblcommutelog Verified Points Advance Search
| # | Trip ID | Id Commuter | Trip Date | Trip Num | Current Lat | Current Lng | Delta Distance | Current Time | Activity | Activity Confidence | Current Speed | |
|---|---|---|---|---|---|---|---|---|---|---|---|---|
| 73061 | 251017_775158_16642620_1714 | 775158 | (not set) | (not set) | 38.854863345076 | -77.044723255413 | 3.6488 | 2025-10-17 17:28:45 | in_vehicle | 100 | 7.4834371954545 | |
| 73062 | 251017_775158_16642620_1714 | 775158 | (not set) | (not set) | 38.854863345076 | -77.044723255413 | 3.6488 | 2025-10-17 17:28:45 | in_vehicle | 100 | 7.4834371954545 | |
| 73063 | 251017_775158_16642620_1714 | 775158 | (not set) | (not set) | 38.854863345076 | -77.044723255413 | 3.6488 | 2025-10-17 17:28:45 | in_vehicle | 100 | 7.4834371954545 | |
| 73064 | 251017_775158_16642620_1714 | 775158 | (not set) | (not set) | 38.854863345076 | -77.044723255413 | 3.6488 | 2025-10-17 17:28:45 | in_vehicle | 100 | 7.4834371954545 | |
| 73065 | 251017_787797_16656315_1653 | 787797 | (not set) | (not set) | 39.079086291658 | -77.140080849451 | 15.6746 | 2025-10-17 17:28:48 | unknown | 100 | 14.466190420843 | |
| 73066 | 251017_787797_16656315_1653 | 787797 | (not set) | (not set) | 39.079086291658 | -77.140080849451 | 15.6746 | 2025-10-17 17:28:48 | unknown | 100 | 14.466190420843 | |
| 73067 | 251017_789382_16658224_1708 | 789382 | (not set) | (not set) | 38.807009751362 | -77.079131945093 | 3.101 | 2025-10-17 17:28:50 | in_vehicle | 100 | 0 | |
| 73068 | 251017_789382_16658224_1708 | 789382 | (not set) | (not set) | 38.807009751362 | -77.079131945093 | 3.101 | 2025-10-17 17:28:50 | in_vehicle | 100 | 0 | |
| 73069 | 251017_785264_16653381_1700 | 785264 | (not set) | (not set) | 38.924952926064 | -77.2375264086 | 12.8654 | 2025-10-17 17:28:51 | in_vehicle | 100 | 9.3118277647143 | |
| 73070 | 251017_783292_16651014_1605 | 783292 | (not set) | (not set) | 38.895275581016 | -77.203332790719 | 21.4743 | 2025-10-17 17:28:52 | in_vehicle | 100 | 13.607875043586 | |
| 73071 | 251017_783292_16651014_1605 | 783292 | (not set) | (not set) | 38.895275581016 | -77.203332790719 | 21.4743 | 2025-10-17 17:28:52 | in_vehicle | 100 | 13.607875043586 | |
| 73072 | 251017_781297_16648973_1637 | 781297 | (not set) | (not set) | 38.891980102711 | -77.022086956952 | 10.5213 | 2025-10-17 17:28:52 | on_foot | 100 | 0.67502928107146 | |
| 73073 | 251017_788741_16657957_1701 | 788741 | (not set) | (not set) | 38.898182796838 | -77.027656654501 | 0.2407 | 2025-10-17 17:28:53 | on_foot | 100 | -0.44703925898772 | |
| 73074 | 251017_788741_16657957_1701 | 788741 | (not set) | (not set) | 38.898182796838 | -77.027656654501 | 0.2407 | 2025-10-17 17:28:53 | on_foot | 100 | -0.44703925898772 | |
| 73075 | 251017_788741_16657957_1701 | 788741 | (not set) | (not set) | 38.89851830022 | -77.027953403581 | 8.1275 | 2025-10-17 17:28:54 | on_foot | 100 | -0.44703925898772 | |
| 73076 | 251017_777589_16645215_1651 | 777589 | (not set) | (not set) | 38.803438932118 | -77.158644651931 | 12.8368 | 2025-10-17 17:28:55 | in_vehicle | 100 | 5.6237538780656 | |
| 73077 | 251017_787177_16655624_1709 | 787177 | (not set) | (not set) | 39.285291788986 | -76.600808367665 | 3.0374 | 2025-10-17 17:28:56 | unknown | 100 | 2.1994331542196 | |
| 73078 | 251017_787177_16655624_1709 | 787177 | (not set) | (not set) | 39.285291788986 | -76.600808367665 | 3.0374 | 2025-10-17 17:28:56 | unknown | 100 | 2.1994331542196 | |
| 73079 | 251017_787177_16655624_1709 | 787177 | (not set) | (not set) | 39.285291788986 | -76.600808367665 | 3.0374 | 2025-10-17 17:28:56 | unknown | 100 | 2.1994331542196 | |
| 73080 | 251017_785264_16653381_1700 | 785264 | (not set) | (not set) | 38.926111834845 | -77.238654872839 | 12.9658 | 2025-10-17 17:28:58 | in_vehicle | 100 | 10.612712008369 |